sensor_id;sensor_type;location;lat;lon;timestamp;P1;durP1;ratioP1;P2;durP2;ratioP2
68995;SDS011;56056;48.990;12.146;2023-03-25T00:00:01;795.58;;;745.67;;
68995;SDS011;56056;48.990;12.146;2023-03-25T00:02:34;829.38;;;772.67;;
68995;SDS011;56056;48.990;12.146;2023-03-25T00:05:03;810.80;;;758.45;;
68995;SDS011;56056;48.990;12.146;2023-03-25T00:07:30;780.42;;;733.88;;
68995;SDS011;56056;48.990;12.146;2023-03-25T00:09:55;854.28;;;798.47;;
68995;SDS011;56056;48.990;12.146;2023-03-25T00:12:21;819.30;;;766.63;;
68995;SDS011;56056;48.990;12.146;2023-03-25T00:14:46;864.22;;;807.83;;
68995;SDS011;56056;48.990;12.146;2023-03-25T00:17:18;782.90;;;735.22;;
68995;SDS011;56056;48.990;12.146;2023-03-25T00:19:44;855.08;;;798.10;;
68995;SDS011;56056;48.990;12.146;2023-03-25T00:22:11;846.38;;;791.70;;
68995;SDS011;56056;48.990;12.146;2023-03-25T00:24:37;841.13;;;784.13;;
68995;SDS011;56056;48.990;12.146;2023-03-25T00:27:02;815.53;;;763.65;;
68995;SDS011;56056;48.990;12.146;2023-03-25T00:29:28;921.53;;;859.13;;
68995;SDS011;56056;48.990;12.146;2023-03-25T00:31:54;833.63;;;781.53;;
68995;SDS011;56056;48.990;12.146;2023-03-25T00:34:19;820.17;;;768.33;;
68995;SDS011;56056;48.990;12.146;2023-03-25T00:36:45;794.13;;;744.65;;
68995;SDS011;56056;48.990;12.146;2023-03-25T00:39:12;865.92;;;807.47;;
68995;SDS011;56056;48.990;12.146;2023-03-25T00:41:38;809.03;;;755.47;;
68995;SDS011;56056;48.990;12.146;2023-03-25T00:44:06;812.90;;;760.70;;
68995;SDS011;56056;48.990;12.146;2023-03-25T00:46:33;897.67;;;833.30;;
68995;SDS011;56056;48.990;12.146;2023-03-25T00:48:59;717.55;;;676.50;;
68995;SDS011;56056;48.990;12.146;2023-03-25T00:51:25;868.85;;;805.67;;
68995;SDS011;56056;48.990;12.146;2023-03-25T00:53:52;886.47;;;822.00;;
68995;SDS011;56056;48.990;12.146;2023-03-25T00:56:20;817.97;;;764.38;;
68995;SDS011;56056;48.990;12.146;2023-03-25T00:58:46;858.38;;;799.05;;
68995;SDS011;56056;48.990;12.146;2023-03-25T01:01:13;974.92;;;878.55;;
68995;SDS011;56056;48.990;12.146;2023-03-25T01:03:40;799.08;;;749.05;;
68995;SDS011;56056;48.990;12.146;2023-03-25T01:06:10;796.95;;;747.00;;
68995;SDS011;56056;48.990;12.146;2023-03-25T01:08:36;932.80;;;857.40;;
68995;SDS011;56056;48.990;12.146;2023-03-25T01:11:03;838.70;;;786.80;;
68995;SDS011;56056;48.990;12.146;2023-03-25T01:13:30;854.67;;;787.58;;
68995;SDS011;56056;48.990;12.146;2023-03-25T01:15:56;851.90;;;797.00;;
68995;SDS011;56056;48.990;12.146;2023-03-25T01:18:22;844.33;;;790.28;;
68995;SDS011;56056;48.990;12.146;2023-03-25T01:20:47;998.28;;;901.35;;
68995;SDS011;56056;48.990;12.146;2023-03-25T01:23:13;900.80;;;839.10;;
68995;SDS011;56056;48.990;12.146;2023-03-25T01:25:39;843.35;;;777.55;;
68995;SDS011;56056;48.990;12.146;2023-03-25T01:28:04;842.17;;;789.38;;
68995;SDS011;56056;48.990;12.146;2023-03-25T01:30:31;844.83;;;785.35;;
68995;SDS011;56056;48.990;12.146;2023-03-25T01:32:57;782.70;;;733.10;;
68995;SDS011;56056;48.990;12.146;2023-03-25T01:35:23;918.80;;;847.10;;
68995;SDS011;56056;48.990;12.146;2023-03-25T01:37:49;753.17;;;709.22;;
68995;SDS011;56056;48.990;12.146;2023-03-25T01:40:16;828.92;;;769.40;;
68995;SDS011;56056;48.990;12.146;2023-03-25T01:42:42;780.28;;;735.05;;
68995;SDS011;56056;48.990;12.146;2023-03-25T01:45:18;866.10;;;807.08;;
68995;SDS011;56056;48.990;12.146;2023-03-25T01:47:48;724.83;;;682.13;;
68995;SDS011;56056;48.990;12.146;2023-03-25T01:50:16;755.28;;;709.63;;
68995;SDS011;56056;48.990;12.146;2023-03-25T01:52:43;813.20;;;757.92;;
68995;SDS011;56056;48.990;12.146;2023-03-25T01:55:10;773.55;;;720.45;;
68995;SDS011;56056;48.990;12.146;2023-03-25T01:57:36;688.97;;;648.10;;
68995;SDS011;56056;48.990;12.146;2023-03-25T02:00:06;665.15;;;627.78;;
68995;SDS011;56056;48.990;12.146;2023-03-25T02:02:33;679.22;;;639.65;;
68995;SDS011;56056;48.990;12.146;2023-03-25T02:05:03;668.28;;;624.90;;
68995;SDS011;56056;48.990;12.146;2023-03-25T02:07:34;743.08;;;692.33;;
68995;SDS011;56056;48.990;12.146;2023-03-25T02:10:04;734.00;;;674.03;;
68995;SDS011;56056;48.990;12.146;2023-03-25T02:12:32;677.08;;;632.72;;
68995;SDS011;56056;48.990;12.146;2023-03-25T02:14:58;799.17;;;749.50;;
68995;SDS011;56056;48.990;12.146;2023-03-25T02:17:27;714.30;;;668.45;;
68995;SDS011;56056;48.990;12.146;2023-03-25T02:20:06;702.75;;;656.10;;
68995;SDS011;56056;48.990;12.146;2023-03-25T02:23:11;742.03;;;696.75;;
68995;SDS011;56056;48.990;12.146;2023-03-25T02:29:08;668.72;;;629.72;;
68995;SDS011;56056;48.990;12.146;2023-03-25T02:31:42;764.95;;;714.72;;
68995;SDS011;56056;48.990;12.146;2023-03-25T02:34:17;731.35;;;681.97;;
68995;SDS011;56056;48.990;12.146;2023-03-25T02:40:00;765.60;;;718.05;;
68995;SDS011;56056;48.990;12.146;2023-03-25T02:42:32;778.20;;;723.17;;
68995;SDS011;56056;48.990;12.146;2023-03-25T02:45:01;723.10;;;676.42;;
68995;SDS011;56056;48.990;12.146;2023-03-25T02:47:30;881.80;;;808.50;;
68995;SDS011;56056;48.990;12.146;2023-03-25T02:50:01;805.42;;;751.05;;
68995;SDS011;56056;48.990;12.146;2023-03-25T02:52:32;734.15;;;681.38;;
68995;SDS011;56056;48.990;12.146;2023-03-25T02:55:03;694.58;;;652.20;;
68995;SDS011;56056;48.990;12.146;2023-03-25T02:57:34;872.72;;;804.15;;
68995;SDS011;56056;48.990;12.146;2023-03-25T03:00:02;835.25;;;774.35;;
68995;SDS011;56056;48.990;12.146;2023-03-25T03:02:42;657.15;;;616.13;;
68995;SDS011;56056;48.990;12.146;2023-03-25T03:05:20;768.42;;;713.65;;
68995;SDS011;56056;48.990;12.146;2023-03-25T03:07:47;737.97;;;691.83;;
68995;SDS011;56056;48.990;12.146;2023-03-25T03:10:20;779.00;;;718.25;;
68995;SDS011;56056;48.990;12.146;2023-03-25T03:12:50;804.75;;;749.63;;
68995;SDS011;56056;48.990;12.146;2023-03-25T03:15:23;808.53;;;750.85;;
68995;SDS011;56056;48.990;12.146;2023-03-25T03:17:59;977.90;;;887.05;;
68995;SDS011;56056;48.990;12.146;2023-03-25T03:20:33;927.70;;;845.33;;
68995;SDS011;56056;48.990;12.146;2023-03-25T03:23:04;883.55;;;810.15;;
68995;SDS011;56056;48.990;12.146;2023-03-25T03:25:37;818.72;;;763.53;;
68995;SDS011;56056;48.990;12.146;2023-03-25T03:28:10;806.83;;;752.85;;
68995;SDS011;56056;48.990;12.146;2023-03-25T03:30:40;904.17;;;846.90;;
68995;SDS011;56056;48.990;12.146;2023-03-25T03:33:08;907.15;;;825.28;;
68995;SDS011;56056;48.990;12.146;2023-03-25T03:35:38;974.72;;;889.72;;
68995;SDS011;56056;48.990;12.146;2023-03-25T03:38:08;911.47;;;847.45;;
68995;SDS011;56056;48.990;12.146;2023-03-25T03:40:36;977.75;;;900.53;;
68995;SDS011;56056;48.990;12.146;2023-03-25T03:43:06;879.92;;;817.20;;
68995;SDS011;56056;48.990;12.146;2023-03-25T03:45:34;899.78;;;839.42;;
68995;SDS011;56056;48.990;12.146;2023-03-25T03:48:04;923.08;;;852.55;;
68995;SDS011;56056;48.990;12.146;2023-03-25T03:50:35;898.95;;;833.35;;
68995;SDS011;56056;48.990;12.146;2023-03-25T03:53:04;849.05;;;791.50;;
68995;SDS011;56056;48.990;12.146;2023-03-25T03:55:33;959.20;;;884.17;;
68995;SDS011;56056;48.990;12.146;2023-03-25T03:58:05;913.97;;;817.88;;
68995;SDS011;56056;48.990;12.146;2023-03-25T04:00:34;922.13;;;844.10;;
68995;SDS011;56056;48.990;12.146;2023-03-25T04:03:03;917.38;;;846.00;;
68995;SDS011;56056;48.990;12.146;2023-03-25T04:05:32;851.45;;;795.70;;
68995;SDS011;56056;48.990;12.146;2023-03-25T04:08:02;900.95;;;833.30;;
68995;SDS011;56056;48.990;12.146;2023-03-25T04:10:36;915.08;;;839.55;;
68995;SDS011;56056;48.990;12.146;2023-03-25T04:13:07;973.92;;;897.42;;
68995;SDS011;56056;48.990;12.146;2023-03-25T04:15:34;784.47;;;736.03;;
68995;SDS011;56056;48.990;12.146;2023-03-25T04:18:00;841.30;;;782.78;;
68995;SDS011;56056;48.990;12.146;2023-03-25T04:20:27;876.15;;;817.78;;
68995;SDS011;56056;48.990;12.146;2023-03-25T04:22:58;848.75;;;790.85;;
68995;SDS011;56056;48.990;12.146;2023-03-25T04:25:23;847.85;;;788.17;;
68995;SDS011;56056;48.990;12.146;2023-03-25T04:27:51;785.20;;;731.28;;
68995;SDS011;56056;48.990;12.146;2023-03-25T04:30:17;747.10;;;702.63;;
68995;SDS011;56056;48.990;12.146;2023-03-25T04:32:44;766.13;;;717.05;;
68995;SDS011;56056;48.990;12.146;2023-03-25T04:35:12;817.88;;;765.17;;
68995;SDS011;56056;48.990;12.146;2023-03-25T04:37:39;783.40;;;732.35;;
68995;SDS011;56056;48.990;12.146;2023-03-25T04:40:06;762.58;;;713.65;;
68995;SDS011;56056;48.990;12.146;2023-03-25T04:42:33;788.13;;;739.33;;
68995;SDS011;56056;48.990;12.146;2023-03-25T04:45:02;721.00;;;679.58;;
68995;SDS011;56056;48.990;12.146;2023-03-25T04:47:28;781.63;;;733.40;;
68995;SDS011;56056;48.990;12.146;2023-03-25T04:49:54;703.65;;;661.35;;
68995;SDS011;56056;48.990;12.146;2023-03-25T04:52:20;734.85;;;692.28;;
68995;SDS011;56056;48.990;12.146;2023-03-25T04:54:45;818.17;;;764.22;;
68995;SDS011;56056;48.990;12.146;2023-03-25T04:57:11;817.63;;;767.05;;
68995;SDS011;56056;48.990;12.146;2023-03-25T04:59:37;751.60;;;704.85;;
68995;SDS011;56056;48.990;12.146;2023-03-25T05:02:04;784.78;;;734.55;;
68995;SDS011;56056;48.990;12.146;2023-03-25T05:04:30;744.47;;;700.17;;
68995;SDS011;56056;48.990;12.146;2023-03-25T05:06:56;741.70;;;697.88;;
68995;SDS011;56056;48.990;12.146;2023-03-25T05:09:21;780.97;;;732.95;;
68995;SDS011;56056;48.990;12.146;2023-03-25T05:11:47;734.75;;;691.08;;
68995;SDS011;56056;48.990;12.146;2023-03-25T05:14:14;812.55;;;760.30;;
68995;SDS011;56056;48.990;12.146;2023-03-25T05:16:42;832.92;;;779.80;;
68995;SDS011;56056;48.990;12.146;2023-03-25T05:19:09;805.35;;;753.28;;
68995;SDS011;56056;48.990;12.146;2023-03-25T05:21:35;856.67;;;796.45;;
68995;SDS011;56056;48.990;12.146;2023-03-25T05:24:02;827.95;;;773.47;;
68995;SDS011;56056;48.990;12.146;2023-03-25T05:26:27;800.58;;;749.67;;
68995;SDS011;56056;48.990;12.146;2023-03-25T05:28:58;883.85;;;827.00;;
68995;SDS011;56056;48.990;12.146;2023-03-25T05:31:25;835.15;;;768.97;;
68995;SDS011;56056;48.990;12.146;2023-03-25T05:33:51;892.90;;;830.35;;
68995;SDS011;56056;48.990;12.146;2023-03-25T05:36:20;886.80;;;827.08;;
68995;SDS011;56056;48.990;12.146;2023-03-25T05:38:48;783.83;;;734.10;;
68995;SDS011;56056;48.990;12.146;2023-03-25T05:41:14;784.67;;;732.00;;
68995;SDS011;56056;48.990;12.146;2023-03-25T05:43:43;902.97;;;842.28;;
68995;SDS011;56056;48.990;12.146;2023-03-25T05:46:15;934.75;;;865.38;;
68995;SDS011;56056;48.990;12.146;2023-03-25T05:48:41;871.08;;;794.97;;
68995;SDS011;56056;48.990;12.146;2023-03-25T05:51:09;812.42;;;758.65;;
68995;SDS011;56056;48.990;12.146;2023-03-25T05:53:38;819.78;;;766.60;;
68995;SDS011;56056;48.990;12.146;2023-03-25T05:56:05;876.58;;;806.67;;
68995;SDS011;56056;48.990;12.146;2023-03-25T05:58:31;928.13;;;863.70;;
68995;SDS011;56056;48.990;12.146;2023-03-25T06:00:57;889.83;;;825.67;;
68995;SDS011;56056;48.990;12.146;2023-03-25T06:03:27;915.38;;;847.58;;
68995;SDS011;56056;48.990;12.146;2023-03-25T06:05:53;864.92;;;739.78;;
68995;SDS011;56056;48.990;12.146;2023-03-25T06:08:18;932.15;;;861.90;;
68995;SDS011;56056;48.990;12.146;2023-03-25T06:10:51;951.28;;;881.03;;
68995;SDS011;56056;48.990;12.146;2023-03-25T06:13:18;977.10;;;904.28;;
68995;SDS011;56056;48.990;12.146;2023-03-25T06:15:44;921.10;;;855.58;;
68995;SDS011;56056;48.990;12.146;2023-03-25T06:18:09;948.95;;;877.00;;
68995;SDS011;56056;48.990;12.146;2023-03-25T06:20:35;909.58;;;839.63;;
68995;SDS011;56056;48.990;12.146;2023-03-25T06:23:01;907.88;;;840.67;;
68995;SDS011;56056;48.990;12.146;2023-03-25T06:25:26;988.53;;;900.47;;
68995;SDS011;56056;48.990;12.146;2023-03-25T06:27:53;923.53;;;852.55;;
68995;SDS011;56056;48.990;12.146;2023-03-25T06:30:21;949.17;;;872.08;;
68995;SDS011;56056;48.990;12.146;2023-03-25T06:32:47;809.33;;;699.20;;
68995;SDS011;56056;48.990;12.146;2023-03-25T06:35:15;925.92;;;858.55;;
68995;SDS011;56056;48.990;12.146;2023-03-25T06:37:43;881.78;;;819.88;;
68995;SDS011;56056;48.990;12.146;2023-03-25T06:40:11;1028.93;;;950.45;;
68995;SDS011;56056;48.990;12.146;2023-03-25T06:42:37;860.13;;;794.75;;
68995;SDS011;56056;48.990;12.146;2023-03-25T06:45:04;786.65;;;724.45;;
68995;SDS011;56056;48.990;12.146;2023-03-25T06:47:31;957.42;;;885.50;;
68995;SDS011;56056;48.990;12.146;2023-03-25T06:49:57;1081.53;;;994.40;;
68995;SDS011;56056;48.990;12.146;2023-03-25T06:52:23;1021.83;;;938.67;;
68995;SDS011;56056;48.990;12.146;2023-03-25T06:54:49;1002.90;;;925.45;;
68995;SDS011;56056;48.990;12.146;2023-03-25T06:57:14;1028.72;;;939.60;;
68995;SDS011;56056;48.990;12.146;2023-03-25T06:59:40;1096.72;;;995.25;;
68995;SDS011;56056;48.990;12.146;2023-03-25T07:02:08;1023.72;;;925.50;;
68995;SDS011;56056;48.990;12.146;2023-03-25T07:04:34;1188.15;;;999.90;;
68995;SDS011;56056;48.990;12.146;2023-03-25T07:07:00;1057.70;;;955.50;;
68995;SDS011;56056;48.990;12.146;2023-03-25T07:09:26;1207.63;;;999.90;;
68995;SDS011;56056;48.990;12.146;2023-03-25T07:11:51;1123.75;;;999.90;;
68995;SDS011;56056;48.990;12.146;2023-03-25T07:14:17;1160.82;;;999.90;;
68995;SDS011;56056;48.990;12.146;2023-03-25T07:16:43;1135.22;;;999.90;;
68995;SDS011;56056;48.990;12.146;2023-03-25T07:19:10;1146.68;;;999.90;;
68995;SDS011;56056;48.990;12.146;2023-03-25T07:21:35;1131.75;;;999.90;;
68995;SDS011;56056;48.990;12.146;2023-03-25T07:24:01;1130.78;;;999.90;;
68995;SDS011;56056;48.990;12.146;2023-03-25T07:26:27;1161.63;;;999.90;;
68995;SDS011;56056;48.990;12.146;2023-03-25T07:28:52;1192.18;;;999.90;;
68995;SDS011;56056;48.990;12.146;2023-03-25T07:31:18;1250.63;;;999.90;;
68995;SDS011;56056;48.990;12.146;2023-03-25T07:33:43;1061.10;;;951.83;;
68995;SDS011;56056;48.990;12.146;2023-03-25T07:36:11;1553.45;;;999.90;;
68995;SDS011;56056;48.990;12.146;2023-03-25T07:38:37;1396.07;;;999.90;;
68995;SDS011;56056;48.990;12.146;2023-03-25T07:41:04;977.05;;;855.50;;
68995;SDS011;56056;48.990;12.146;2023-03-25T07:43:30;1240.85;;;999.90;;
68995;SDS011;56056;48.990;12.146;2023-03-25T07:45:56;1937.78;;;999.90;;
68995;SDS011;56056;48.990;12.146;2023-03-25T07:48:22;1725.68;;;999.90;;
68995;SDS011;56056;48.990;12.146;2023-03-25T07:50:49;1977.03;;;999.90;;
68995;SDS011;56056;48.990;12.146;2023-03-25T07:53:17;1498.72;;;999.90;;
68995;SDS011;56056;48.990;12.146;2023-03-25T07:55:42;1537.00;;;999.90;;
68995;SDS011;56056;48.990;12.146;2023-03-25T07:58:09;1849.22;;;999.90;;
68995;SDS011;56056;48.990;12.146;2023-03-25T08:00:35;1883.32;;;999.90;;
68995;SDS011;56056;48.990;12.146;2023-03-25T08:03:00;1390.20;;;999.90;;
68995;SDS011;56056;48.990;12.146;2023-03-25T08:05:27;1798.43;;;999.90;;
68995;SDS011;56056;48.990;12.146;2023-03-25T08:07:53;1719.60;;;999.90;;
68995;SDS011;56056;48.990;12.146;2023-03-25T08:10:20;1601.55;;;999.90;;
68995;SDS011;56056;48.990;12.146;2023-03-25T08:12:46;1545.95;;;999.90;;
68995;SDS011;56056;48.990;12.146;2023-03-25T08:15:12;1388.97;;;995.85;;
68995;SDS011;56056;48.990;12.146;2023-03-25T08:17:38;1671.13;;;999.90;;
68995;SDS011;56056;48.990;12.146;2023-03-25T08:20:04;1413.47;;;999.90;;
68995;SDS011;56056;48.990;12.146;2023-03-25T08:22:30;1589.80;;;999.90;;
68995;SDS011;56056;48.990;12.146;2023-03-25T08:24:56;1067.45;;;959.95;;
68995;SDS011;56056;48.990;12.146;2023-03-25T08:27:24;1507.13;;;999.90;;
68995;SDS011;56056;48.990;12.146;2023-03-25T08:29:50;1130.72;;;998.45;;
68995;SDS011;56056;48.990;12.146;2023-03-25T08:32:21;1220.22;;;999.90;;
68995;SDS011;56056;48.990;12.146;2023-03-25T08:34:47;1400.20;;;999.90;;
68995;SDS011;56056;48.990;12.146;2023-03-25T08:37:13;1242.97;;;999.90;;
68995;SDS011;56056;48.990;12.146;2023-03-25T08:39:39;1179.15;;;999.90;;
68995;SDS011;56056;48.990;12.146;2023-03-25T08:42:06;1183.25;;;999.90;;
68995;SDS011;56056;48.990;12.146;2023-03-25T08:44:33;1074.50;;;964.35;;
68995;SDS011;56056;48.990;12.146;2023-03-25T08:46:59;1112.70;;;855.35;;
68995;SDS011;56056;48.990;12.146;2023-03-25T08:49:25;1268.22;;;999.90;;
68995;SDS011;56056;48.990;12.146;2023-03-25T08:51:51;1212.10;;;999.90;;
68995;SDS011;56056;48.990;12.146;2023-03-25T08:54:16;1532.57;;;999.90;;
68995;SDS011;56056;48.990;12.146;2023-03-25T08:56:42;1595.75;;;999.90;;
68995;SDS011;56056;48.990;12.146;2023-03-25T08:59:08;1523.30;;;938.25;;
68995;SDS011;56056;48.990;12.146;2023-03-25T09:01:36;1611.80;;;999.90;;
68995;SDS011;56056;48.990;12.146;2023-03-25T09:04:02;1890.85;;;999.90;;
68995;SDS011;56056;48.990;12.146;2023-03-25T09:06:28;1484.43;;;999.90;;
68995;SDS011;56056;48.990;12.146;2023-03-25T09:08:54;1965.13;;;999.90;;
68995;SDS011;56056;48.990;12.146;2023-03-25T09:11:20;1857.13;;;999.90;;
68995;SDS011;56056;48.990;12.146;2023-03-25T09:13:45;1787.05;;;999.90;;
68995;SDS011;56056;48.990;12.146;2023-03-25T09:16:11;1788.18;;;999.90;;
68995;SDS011;56056;48.990;12.146;2023-03-25T09:18:38;1691.82;;;999.90;;
68995;SDS011;56056;48.990;12.146;2023-03-25T09:21:04;1999.90;;;999.90;;
68995;SDS011;56056;48.990;12.146;2023-03-25T09:23:30;1717.53;;;999.90;;
68995;SDS011;56056;48.990;12.146;2023-03-25T09:25:58;1793.72;;;999.90;;
68995;SDS011;56056;48.990;12.146;2023-03-25T09:28:25;1956.57;;;999.90;;
68995;SDS011;56056;48.990;12.146;2023-03-25T09:30:50;1491.22;;;999.90;;
68995;SDS011;56056;48.990;12.146;2023-03-25T09:33:16;1652.72;;;999.90;;
68995;SDS011;56056;48.990;12.146;2023-03-25T09:35:44;1999.13;;;999.90;;
68995;SDS011;56056;48.990;12.146;2023-03-25T09:38:11;1365.68;;;999.90;;
68995;SDS011;56056;48.990;12.146;2023-03-25T09:40:39;1662.70;;;999.90;;
68995;SDS011;56056;48.990;12.146;2023-03-25T09:43:06;1609.32;;;999.90;;
68995;SDS011;56056;48.990;12.146;2023-03-25T09:45:45;1685.50;;;999.90;;
68995;SDS011;56056;48.990;12.146;2023-03-25T09:48:16;1917.10;;;999.90;;
68995;SDS011;56056;48.990;12.146;2023-03-25T09:50:49;1999.90;;;999.90;;
68995;SDS011;56056;48.990;12.146;2023-03-25T09:53:17;1656.45;;;999.90;;
68995;SDS011;56056;48.990;12.146;2023-03-25T09:55:49;1601.30;;;999.90;;
68995;SDS011;56056;48.990;12.146;2023-03-25T09:58:22;1686.75;;;999.90;;
68995;SDS011;56056;48.990;12.146;2023-03-25T10:00:53;1697.30;;;999.90;;
68995;SDS011;56056;48.990;12.146;2023-03-25T10:03:22;1657.50;;;999.90;;
68995;SDS011;56056;48.990;12.146;2023-03-25T10:08:40;1999.90;;;999.90;;
68995;SDS011;56056;48.990;12.146;2023-03-25T10:11:11;1999.90;;;999.90;;
68995;SDS011;56056;48.990;12.146;2023-03-25T10:13:42;1964.72;;;999.90;;
68995;SDS011;56056;48.990;12.146;2023-03-25T10:16:14;1763.03;;;999.90;;
68995;SDS011;56056;48.990;12.146;2023-03-25T10:18:51;1639.35;;;999.90;;
68995;SDS011;56056;48.990;12.146;2023-03-25T10:21:31;1999.90;;;999.90;;
68995;SDS011;56056;48.990;12.146;2023-03-25T10:24:05;1959.80;;;999.90;;
68995;SDS011;56056;48.990;12.146;2023-03-25T10:26:39;1999.90;;;999.90;;
68995;SDS011;56056;48.990;12.146;2023-03-25T10:29:09;1812.78;;;999.90;;
68995;SDS011;56056;48.990;12.146;2023-03-25T10:31:37;1502.63;;;999.90;;
68995;SDS011;56056;48.990;12.146;2023-03-25T10:34:09;1640.57;;;999.90;;
68995;SDS011;56056;48.990;12.146;2023-03-25T10:36:41;1642.47;;;999.90;;
68995;SDS011;56056;48.990;12.146;2023-03-25T10:39:10;1469.50;;;999.90;;
68995;SDS011;56056;48.990;12.146;2023-03-25T10:41:39;1882.15;;;999.90;;
68995;SDS011;56056;48.990;12.146;2023-03-25T10:44:07;1759.15;;;999.90;;
68995;SDS011;56056;48.990;12.146;2023-03-25T10:46:34;1575.00;;;999.90;;
68995;SDS011;56056;48.990;12.146;2023-03-25T10:49:03;1786.00;;;999.90;;
68995;SDS011;56056;48.990;12.146;2023-03-25T10:51:29;1882.93;;;999.90;;
68995;SDS011;56056;48.990;12.146;2023-03-25T10:53:59;1729.78;;;999.90;;
68995;SDS011;56056;48.990;12.146;2023-03-25T10:56:25;1999.90;;;999.90;;
68995;SDS011;56056;48.990;12.146;2023-03-25T10:58:54;1797.43;;;999.90;;
68995;SDS011;56056;48.990;12.146;2023-03-25T11:01:21;1659.68;;;999.90;;
68995;SDS011;56056;48.990;12.146;2023-03-25T11:03:55;1480.93;;;999.90;;
68995;SDS011;56056;48.990;12.146;2023-03-25T11:06:23;1569.30;;;999.90;;
68995;SDS011;56056;48.990;12.146;2023-03-25T11:09:00;1555.47;;;999.90;;
68995;SDS011;56056;48.990;12.146;2023-03-25T11:11:38;1884.55;;;999.90;;
68995;SDS011;56056;48.990;12.146;2023-03-25T11:14:03;1705.13;;;999.90;;
68995;SDS011;56056;48.990;12.146;2023-03-25T11:16:30;1700.00;;;999.90;;
68995;SDS011;56056;48.990;12.146;2023-03-25T11:18:59;1444.22;;;999.90;;
68995;SDS011;56056;48.990;12.146;2023-03-25T11:21:25;1713.07;;;999.90;;
68995;SDS011;56056;48.990;12.146;2023-03-25T11:23:50;1783.93;;;999.90;;
68995;SDS011;56056;48.990;12.146;2023-03-25T11:26:19;1802.65;;;999.90;;
68995;SDS011;56056;48.990;12.146;2023-03-25T11:28:46;1923.05;;;999.90;;
68995;SDS011;56056;48.990;12.146;2023-03-25T11:31:14;1916.28;;;999.90;;
68995;SDS011;56056;48.990;12.146;2023-03-25T11:33:41;1999.90;;;999.90;;
68995;SDS011;56056;48.990;12.146;2023-03-25T11:36:12;1999.90;;;999.90;;
68995;SDS011;56056;48.990;12.146;2023-03-25T11:38:50;1943.57;;;999.90;;
68995;SDS011;56056;48.990;12.146;2023-03-25T11:41:19;1294.80;;;989.33;;
68995;SDS011;56056;48.990;12.146;2023-03-25T11:43:46;1231.15;;;999.90;;
68995;SDS011;56056;48.990;12.146;2023-03-25T11:46:13;1203.65;;;999.90;;
68995;SDS011;56056;48.990;12.146;2023-03-25T11:48:40;1212.80;;;999.90;;
68995;SDS011;56056;48.990;12.146;2023-03-25T11:51:10;1070.13;;;967.25;;
68995;SDS011;56056;48.990;12.146;2023-03-25T11:53:37;1102.07;;;995.42;;
68995;SDS011;56056;48.990;12.146;2023-03-25T11:56:09;822.50;;;689.80;;
68995;SDS011;56056;48.990;12.146;2023-03-25T11:58:36;1196.40;;;983.22;;
68995;SDS011;56056;48.990;12.146;2023-03-25T12:01:05;1242.57;;;999.90;;
68995;SDS011;56056;48.990;12.146;2023-03-25T12:03:32;1309.18;;;999.90;;
68995;SDS011;56056;48.990;12.146;2023-03-25T12:05:59;1100.45;;;994.03;;
68995;SDS011;56056;48.990;12.146;2023-03-25T12:08:29;1197.63;;;999.90;;
68995;SDS011;56056;48.990;12.146;2023-03-25T12:11:06;1042.32;;;942.90;;
68995;SDS011;56056;48.990;12.146;2023-03-25T12:13:34;1104.53;;;985.10;;
68995;SDS011;56056;48.990;12.146;2023-03-25T12:16:12;1333.75;;;999.90;;
68995;SDS011;56056;48.990;12.146;2023-03-25T12:18:46;1004.05;;;790.72;;
68995;SDS011;56056;48.990;12.146;2023-03-25T12:21:20;1478.63;;;998.42;;
68995;SDS011;56056;48.990;12.146;2023-03-25T12:23:59;1999.90;;;999.90;;
68995;SDS011;56056;48.990;12.146;2023-03-25T12:26:35;1969.30;;;999.90;;
68995;SDS011;56056;48.990;12.146;2023-03-25T12:29:11;1999.90;;;999.90;;
68995;SDS011;56056;48.990;12.146;2023-03-25T12:31:47;1804.68;;;999.90;;
68995;SDS011;56056;48.990;12.146;2023-03-25T12:34:21;1993.18;;;999.90;;
68995;SDS011;56056;48.990;12.146;2023-03-25T12:36:53;1999.90;;;999.90;;
68995;SDS011;56056;48.990;12.146;2023-03-25T12:39:29;1999.90;;;999.90;;
68995;SDS011;56056;48.990;12.146;2023-03-25T12:42:07;1806.90;;;999.90;;
68995;SDS011;56056;48.990;12.146;2023-03-25T12:44:43;1536.00;;;999.90;;
68995;SDS011;56056;48.990;12.146;2023-03-25T12:47:16;1578.10;;;999.90;;
68995;SDS011;56056;48.990;12.146;2023-03-25T12:49:52;1581.07;;;999.90;;
68995;SDS011;56056;48.990;12.146;2023-03-25T12:52:24;1688.72;;;999.90;;
68995;SDS011;56056;48.990;12.146;2023-03-25T12:54:57;1559.28;;;999.90;;
68995;SDS011;56056;48.990;12.146;2023-03-25T12:57:37;1497.82;;;999.90;;
68995;SDS011;56056;48.990;12.146;2023-03-25T13:00:33;1536.47;;;999.90;;
68995;SDS011;56056;48.990;12.146;2023-03-25T13:03:09;1552.47;;;999.90;;
68995;SDS011;56056;48.990;12.146;2023-03-25T13:05:49;1385.40;;;999.90;;
68995;SDS011;56056;48.990;12.146;2023-03-25T13:08:17;1162.53;;;999.90;;
68995;SDS011;56056;48.990;12.146;2023-03-25T13:10:46;1203.10;;;999.90;;
68995;SDS011;56056;48.990;12.146;2023-03-25T13:13:16;1287.03;;;999.90;;
68995;SDS011;56056;48.990;12.146;2023-03-25T13:15:45;1257.95;;;999.90;;
68995;SDS011;56056;48.990;12.146;2023-03-25T13:18:14;1188.78;;;999.90;;
68995;SDS011;56056;48.990;12.146;2023-03-25T13:20:44;949.53;;;860.33;;
68995;SDS011;56056;48.990;12.146;2023-03-25T13:23:14;1017.35;;;927.45;;
68995;SDS011;56056;48.990;12.146;2023-03-25T13:25:44;980.10;;;897.40;;
68995;SDS011;56056;48.990;12.146;2023-03-25T13:28:14;1028.18;;;930.95;;
68995;SDS011;56056;48.990;12.146;2023-03-25T13:30:42;1019.28;;;936.97;;
68995;SDS011;56056;48.990;12.146;2023-03-25T13:33:12;969.13;;;891.45;;
68995;SDS011;56056;48.990;12.146;2023-03-25T13:35:41;945.15;;;873.05;;
68995;SDS011;56056;48.990;12.146;2023-03-25T13:38:11;904.28;;;837.03;;
68995;SDS011;56056;48.990;12.146;2023-03-25T13:40:41;956.00;;;870.05;;
68995;SDS011;56056;48.990;12.146;2023-03-25T13:43:11;917.05;;;837.85;;
68995;SDS011;56056;48.990;12.146;2023-03-25T13:45:45;937.88;;;865.00;;
68995;SDS011;56056;48.990;12.146;2023-03-25T13:48:16;915.05;;;835.13;;
68995;SDS011;56056;48.990;12.146;2023-03-25T13:50:47;903.42;;;834.78;;
68995;SDS011;56056;48.990;12.146;2023-03-25T13:53:15;957.42;;;884.25;;
68995;SDS011;56056;48.990;12.146;2023-03-25T13:55:46;925.10;;;857.75;;